Huvudsida
METAR-TAF:

METAR-TAF

Flygplatser :

Åbo flygplats

Åbo, Finland

latitud: 60-31N, longitud: 022-16E, höjd: 49 m

Aktuellt väderrapport

Denna rapport gjordes för 10 minuter sedan, klockan 11:50 UTC
Vind 11 kt från sydväst
Temperatur 22°C
Fuktighet 50%
Tryck 1017 hPa
Sikt 10 km eller mer

METAR: EFTU 161150Z AUTO 23011KT 9999 FEW037/// BKN053/// 22/11 Q1017

Tid: 15:00 (12:00 UTC)

Väderprognos

Denna rapport gjordes för 24 minuter sedan, klockan 11:36 UTC
Prognos gäller från 16 kl. 12 UTC till 17 kl. 12 UTC
Vind 9 kt från syd/sydväst
Sikt 10 km eller mer
Spridda moln på en höjd av 4000 ft
Sannolikhet 30%
från 16 kl. 12 UTC till 16 kl. 15 UTC
Få moln på en höjd av 3000 ft, Högtornande cumulus.
Spridda moln på en höjd av 25000 ft

TAF: EFTU 161136Z 1612/1712 20009KT 9999 SCT040 PROB30 1612/1615 FEW030TCU SCT250

Aktuella väderrapporter och prognoser från 4000 flygplatser (METAR- och TAF-rapporter).

De tillgängliga stationerna syns som gula och röda prickar på kartan.

För musen över prickarna för att se namnen på stationerna.

Klicka sedan för att få väderrapporter och prognoser.

För att ändra kartan: Klicka på de gröna knapparna med ett svart kors på för att zooma in; den gröna knappen med ett streck på för att zooma ut; eller på de gröna pilarna för angränsande kartor.


METAR-TAF: